createdAt,value
2023-02-10T00:01:36.022Z,-3.90
2023-02-10T00:04:04.875Z,-4.57
2023-02-10T00:06:35.615Z,-4.10
2023-02-10T00:09:05.658Z,-3.99
2023-02-10T00:11:51.091Z,-3.99
2023-02-10T00:14:20.736Z,-3.99
2023-02-10T00:16:52.021Z,-3.95
2023-02-10T00:19:21.343Z,-3.99
2023-02-10T00:21:51.278Z,-3.95
2023-02-10T00:24:20.212Z,-4.14
2023-02-10T00:26:48.929Z,-4.29
2023-02-10T00:29:17.338Z,-3.87
2023-02-10T00:31:45.899Z,-4.06
2023-02-10T00:34:15.675Z,-4.98
2023-02-10T00:36:44.348Z,-4.36
2023-02-10T00:39:16.782Z,-4.42
2023-02-10T00:41:45.168Z,-4.47
2023-02-10T00:44:13.633Z,-4.30
2023-02-10T00:46:41.939Z,-4.30
2023-02-10T00:49:12.737Z,-4.32
2023-02-10T00:51:40.850Z,-4.31
2023-02-10T00:54:09.119Z,-4.50
2023-02-10T00:56:38.664Z,-4.39
2023-02-10T00:59:06.808Z,-4.32
2023-02-10T01:01:34.980Z,-4.29
2023-02-10T01:04:03.208Z,-5.13
2023-02-10T01:06:31.395Z,-4.29
2023-02-10T01:08:59.577Z,-4.31
2023-02-10T01:11:27.739Z,-4.36
2023-02-10T01:13:57.418Z,-4.34
2023-02-10T01:16:25.651Z,-4.39
2023-02-10T01:18:54.941Z,-4.49
2023-02-10T01:21:23.138Z,-4.52
2023-02-10T01:23:51.297Z,-4.48
2023-02-10T01:26:19.478Z,-4.53
2023-02-10T01:28:47.546Z,-4.58
2023-02-10T01:31:19.280Z,-4.56
2023-02-10T01:33:47.828Z,-5.13
2023-02-10T01:36:17.797Z,-4.78
2023-02-10T01:38:46.881Z,-4.52
2023-02-10T01:41:16.461Z,-4.50
2023-02-10T01:44:02.629Z,-4.80
2023-02-10T01:46:33.577Z,-4.60
2023-02-10T01:49:04.086Z,-4.62
2023-02-10T01:51:38.834Z,-5.11
2023-02-10T01:54:09.824Z,-4.68
2023-02-10T01:56:38.266Z,-4.78
2023-02-10T01:59:06.565Z,-4.71
2023-02-10T02:01:36.198Z,-4.80
2023-02-10T02:04:05.030Z,-4.70
2023-02-10T02:06:33.801Z,-4.89
2023-02-10T02:09:02.471Z,-4.81
2023-02-10T02:11:43.352Z,-4.74
2023-02-10T02:14:31.230Z,-4.69
2023-02-10T02:17:12.371Z,-7.94
2023-02-10T02:20:42.988Z,-4.76
2023-02-10T02:23:31.260Z,-5.08
2023-02-10T02:26:21.238Z,-4.70
2023-02-10T02:29:07.195Z,-5.01
2023-02-10T02:31:58.490Z,-5.02
2023-02-10T02:34:34.144Z,-5.05
2023-02-10T02:37:07.872Z,-5.10
2023-02-10T02:39:36.068Z,-5.03
2023-02-10T02:42:20.707Z,-5.04
2023-02-10T02:44:53.311Z,-5.04
2023-02-10T02:47:47.020Z,-4.96
2023-02-10T02:50:24.905Z,-4.91
2023-02-10T02:53:09.913Z,-4.92
2023-02-10T02:55:48.774Z,-4.95
2023-02-10T02:58:22.461Z,-5.19
2023-02-10T03:00:52.204Z,-5.75
2023-02-10T03:03:21.964Z,-4.97
2023-02-10T03:05:50.149Z,-5.24
2023-02-10T03:08:18.195Z,-4.98
2023-02-10T03:10:46.365Z,-5.13
2023-02-10T03:13:14.455Z,-5.55
2023-02-10T03:15:43.433Z,-5.23
2023-02-10T03:18:11.619Z,-5.20
2023-02-10T03:20:41.695Z,-5.14
2023-02-10T03:23:10.127Z,-5.20
2023-02-10T03:25:38.604Z,-5.16
2023-02-10T03:28:07.773Z,-5.11
2023-02-10T03:30:36.021Z,-5.78
2023-02-10T03:33:04.074Z,-5.11
2023-02-10T03:35:32.413Z,-5.11
2023-02-10T03:38:01.964Z,-5.22
2023-02-10T03:40:30.089Z,-5.11
2023-02-10T03:42:58.223Z,-5.17
2023-02-10T03:45:26.572Z,-6.35
2023-02-10T03:47:54.761Z,-5.35
2023-02-10T03:50:23.119Z,-5.48
2023-02-10T03:52:51.405Z,-5.42
2023-02-10T03:55:20.995Z,-5.36
2023-02-10T03:57:49.216Z,-5.42
2023-02-10T04:00:18.330Z,-5.40
2023-02-10T04:02:46.977Z,-5.48
2023-02-10T04:05:15.294Z,-6.10
2023-02-10T04:07:43.451Z,-5.43
2023-02-10T04:10:11.568Z,-5.47
2023-02-10T04:12:41.129Z,-5.61
2023-02-10T04:15:09.923Z,-5.64
2023-02-10T04:17:37.994Z,-5.52
2023-02-10T04:20:06.802Z,-5.36
2023-02-10T04:22:34.982Z,-5.39
2023-02-10T04:25:03.129Z,-5.41
2023-02-10T04:27:31.516Z,-5.36
2023-02-10T04:30:01.095Z,-5.64
2023-02-10T04:32:29.308Z,-5.41
2023-02-10T04:34:57.480Z,-5.50
2023-02-10T04:37:25.591Z,-5.58
2023-02-10T04:39:53.768Z,-5.66
2023-02-10T04:42:31.010Z,-5.52
2023-02-10T04:45:01.244Z,-5.65
2023-02-10T04:47:30.156Z,-5.71
2023-02-10T04:49:58.320Z,-5.93
2023-02-10T04:52:26.511Z,-5.68
2023-02-10T04:54:54.767Z,-5.62
2023-02-10T04:57:22.910Z,-5.66
2023-02-10T04:59:51.106Z,-5.67
2023-02-10T05:02:20.693Z,-6.09
2023-02-10T05:04:48.765Z,-5.53
2023-02-10T05:07:16.857Z,-5.61
2023-02-10T05:09:45.004Z,-5.72
2023-02-10T05:12:13.162Z,-5.77
2023-02-10T05:14:41.250Z,-6.09
2023-02-10T05:17:09.452Z,-5.84
2023-02-10T05:19:38.987Z,-5.90
2023-02-10T05:22:07.062Z,-6.04
2023-02-10T05:24:35.387Z,-6.05
2023-02-10T05:27:03.598Z,-5.88
2023-02-10T05:29:31.731Z,-5.89
2023-02-10T05:31:59.905Z,-5.86
2023-02-10T05:34:28.097Z,-5.82
2023-02-10T05:36:57.699Z,-5.84
2023-02-10T05:39:25.851Z,-5.79
2023-02-10T05:41:55.028Z,-5.93
2023-02-10T05:44:23.416Z,-5.81
2023-02-10T05:46:51.806Z,-5.83
2023-02-10T05:49:20.914Z,-5.86
2023-02-10T05:51:51.889Z,-5.87
2023-02-10T05:54:21.822Z,-5.83
2023-02-10T05:56:51.629Z,-5.88
2023-02-10T05:59:20.207Z,-6.77
2023-02-10T06:01:48.449Z,-5.92
2023-02-10T06:04:16.698Z,-6.16
2023-02-10T06:06:44.897Z,-5.98
2023-02-10T06:09:13.023Z,-5.91
2023-02-10T06:11:42.639Z,-5.88
2023-02-10T06:14:10.832Z,-5.91
2023-02-10T06:16:39.157Z,-6.31
2023-02-10T06:19:07.358Z,-5.78
2023-02-10T06:21:35.477Z,-5.82
2023-02-10T06:24:03.636Z,-5.90
2023-02-10T06:26:31.800Z,-5.85
2023-02-10T06:29:01.446Z,-5.85
2023-02-10T06:31:29.821Z,-5.87
2023-02-10T06:33:58.118Z,-5.82
2023-02-10T06:36:26.265Z,-5.75
2023-02-10T06:38:54.437Z,-5.64
2023-02-10T06:41:22.647Z,-5.48
2023-02-10T06:43:51.927Z,-5.56
2023-02-10T06:46:21.621Z,-5.40
2023-02-10T06:48:49.902Z,-5.26
2023-02-10T06:51:18.225Z,-5.08
2023-02-10T06:53:46.568Z,-5.18
2023-02-10T06:56:15.076Z,-5.23
2023-02-10T06:58:43.272Z,-5.19
2023-02-10T07:01:12.360Z,-5.04
2023-02-10T07:03:42.161Z,-5.06
2023-02-10T07:06:10.326Z,-4.75
2023-02-10T07:08:38.565Z,-4.71
2023-02-10T07:11:06.952Z,-4.41
2023-02-10T07:13:35.139Z,-4.19
2023-02-10T07:16:03.502Z,-4.09
2023-02-10T07:18:31.727Z,-3.98
2023-02-10T07:21:01.299Z,-4.03
2023-02-10T07:23:36.182Z,-3.78
2023-02-10T07:26:06.018Z,-3.97
2023-02-10T07:28:34.674Z,-3.44
2023-02-10T07:31:03.135Z,-3.30
2023-02-10T07:33:31.539Z,-3.22
2023-02-10T07:36:03.447Z,-2.94
2023-02-10T07:38:31.964Z,-3.17
2023-02-10T07:41:00.226Z,-3.17
2023-02-10T07:43:28.439Z,-3.16
2023-02-10T07:45:56.655Z,-3.07
2023-02-10T07:48:25.008Z,-3.31
2023-02-10T07:50:53.624Z,-2.87
2023-02-10T07:53:23.808Z,-2.67
2023-02-10T07:55:52.174Z,-2.65
2023-02-10T07:58:20.823Z,-2.35
2023-02-10T08:00:49.380Z,-2.20
2023-02-10T08:03:17.968Z,-2.17
2023-02-10T08:05:49.491Z,-2.09
2023-02-10T08:08:18.113Z,-3.19
2023-02-10T08:10:48.026Z,-1.86
2023-02-10T08:13:16.583Z,-1.73
2023-02-10T08:15:44.732Z,-1.58
2023-02-10T08:18:12.904Z,-1.47
2023-02-10T08:20:41.900Z,-1.38
2023-02-10T08:23:15.230Z,-1.43
2023-02-10T08:25:43.679Z,-1.20
2023-02-10T08:28:13.347Z,-1.26
2023-02-10T08:30:41.970Z,-1.18
2023-02-10T08:33:10.226Z,-1.06
2023-02-10T08:35:39.102Z,-0.95
2023-02-10T08:38:07.840Z,-1.01
2023-02-10T08:40:36.062Z,-0.82
2023-02-10T08:43:04.330Z,-0.47
2023-02-10T08:45:33.947Z,-0.42
2023-02-10T08:48:02.292Z,-0.21
2023-02-10T08:50:30.498Z,-0.16
2023-02-10T08:52:58.663Z,-0.10
2023-02-10T08:55:26.845Z,-0.06
2023-02-10T08:57:55.086Z,-0.16
2023-02-10T09:00:23.391Z,0.09
2023-02-10T09:02:53.373Z,0.02
2023-02-10T09:05:21.879Z,-0.09
2023-02-10T09:07:50.122Z,-0.47
2023-02-10T09:10:18.873Z,-0.23
2023-02-10T09:12:47.245Z,0.06
2023-02-10T09:15:15.867Z,0.03
2023-02-10T09:17:44.106Z,-0.09
2023-02-10T09:20:14.572Z,-0.11
2023-02-10T09:22:42.783Z,0.08
2023-02-10T09:25:11.189Z,0.21
2023-02-10T09:27:39.444Z,0.28
2023-02-10T09:30:08.394Z,0.41
2023-02-10T09:32:36.877Z,0.48
2023-02-10T09:35:05.276Z,0.33
2023-02-10T09:37:35.092Z,0.49
2023-02-10T09:40:03.279Z,0.58
2023-02-10T09:42:42.648Z,0.74
2023-02-10T09:45:16.242Z,0.91
2023-02-10T09:47:51.158Z,1.03
2023-02-10T09:50:40.027Z,1.21
2023-02-10T09:53:15.582Z,1.27
2023-02-10T09:55:49.252Z,1.49
2023-02-10T09:58:27.061Z,1.50
2023-02-10T10:01:01.002Z,1.56
2023-02-10T10:03:37.035Z,1.84
2023-02-10T10:06:14.756Z,1.94
2023-02-10T10:08:52.497Z,1.43
2023-02-10T10:11:26.927Z,1.89
2023-02-10T10:13:56.646Z,1.85
2023-02-10T10:16:44.677Z,1.77
2023-02-10T10:19:20.301Z,2.02
2023-02-10T10:21:59.937Z,2.23
2023-02-10T10:24:50.806Z,2.36
2023-02-10T10:27:27.893Z,1.52
2023-02-10T10:29:57.811Z,2.39
2023-02-10T10:32:39.214Z,2.33
2023-02-10T10:35:16.947Z,2.31
2023-02-10T10:37:45.443Z,2.57
2023-02-10T10:40:21.593Z,2.34
2023-02-10T10:42:52.844Z,2.82
2023-02-10T10:45:27.480Z,2.94
2023-02-10T10:48:01.913Z,2.86
2023-02-10T10:50:30.317Z,3.07
2023-02-10T10:52:59.696Z,3.11
2023-02-10T10:55:37.907Z,3.18
2023-02-10T10:58:16.698Z,3.31
2023-02-10T11:00:51.992Z,3.25
2023-02-10T11:03:20.209Z,3.25
2023-02-10T11:06:00.555Z,3.03
2023-02-10T11:08:32.097Z,2.47
2023-02-10T11:11:05.027Z,3.55
2023-02-10T11:13:34.680Z,3.53
2023-02-10T11:16:05.524Z,3.58
2023-02-10T11:18:33.691Z,3.62
2023-02-10T11:21:04.319Z,3.87
2023-02-10T11:23:32.715Z,3.86
2023-02-10T11:26:07.500Z,4.07
2023-02-10T11:28:37.214Z,3.18
2023-02-10T11:31:07.888Z,4.12
2023-02-10T11:33:37.761Z,4.32
2023-02-10T11:36:08.924Z,4.53
2023-02-10T11:38:38.450Z,4.58
2023-02-10T11:41:10.700Z,4.70
2023-02-10T11:43:43.185Z,4.73
2023-02-10T11:46:21.436Z,4.95
2023-02-10T11:48:55.338Z,4.22
2023-02-10T11:51:23.509Z,5.21
2023-02-10T11:53:52.277Z,5.25
2023-02-10T11:56:47.126Z,5.50
2023-02-10T11:59:28.854Z,5.57
2023-02-10T12:01:59.760Z,5.67
2023-02-10T12:04:34.653Z,5.72
2023-02-10T12:07:04.613Z,5.82
2023-02-10T12:09:36.566Z,5.88
2023-02-10T12:12:10.513Z,5.91
2023-02-10T12:14:46.474Z,5.95
2023-02-10T12:17:22.676Z,6.06
2023-02-10T12:19:54.735Z,6.15
2023-02-10T12:22:26.660Z,6.21
2023-02-10T12:25:07.666Z,6.29
2023-02-10T12:27:51.902Z,6.42
2023-02-10T12:30:31.200Z,6.58
2023-02-10T12:33:10.188Z,6.56
2023-02-10T12:35:50.866Z,6.87
2023-02-10T12:38:32.435Z,7.01
2023-02-10T12:41:09.107Z,7.16
2023-02-10T12:43:56.253Z,7.13
2023-02-10T12:46:30.710Z,6.88
2023-02-10T12:49:16.296Z,6.60
2023-02-10T12:52:04.577Z,6.93
2023-02-10T12:54:43.986Z,7.23
2023-02-10T12:57:17.639Z,7.41
2023-02-10T12:59:54.493Z,7.58
2023-02-10T13:02:29.146Z,7.61
2023-02-10T13:04:59.978Z,7.55
2023-02-10T13:07:34.897Z,7.67
2023-02-10T13:10:11.881Z,7.98
2023-02-10T13:12:43.977Z,8.17
2023-02-10T13:15:21.002Z,8.26
2023-02-10T13:17:50.964Z,8.26
2023-02-10T13:20:29.136Z,8.52
2023-02-10T13:23:06.455Z,8.71
2023-02-10T13:25:46.624Z,7.68
2023-02-10T13:28:21.560Z,8.43
2023-02-10T13:31:05.540Z,8.52
2023-02-10T13:33:42.025Z,8.65
2023-02-10T13:36:17.022Z,8.85
2023-02-10T13:38:45.877Z,9.22
2023-02-10T13:41:47.615Z,9.25
2023-02-10T13:44:31.469Z,8.81
2023-02-10T13:47:25.333Z,8.71
2023-02-10T13:49:57.480Z,8.43
2023-02-10T13:52:28.981Z,8.97
2023-02-10T13:55:00.313Z,10.27
2023-02-10T13:57:32.314Z,11.43
2023-02-10T14:00:17.334Z,12.16
2023-02-10T14:02:47.865Z,14.25
2023-02-10T14:05:28.787Z,13.58
2023-02-10T14:07:58.152Z,13.85
2023-02-10T14:10:33.409Z,14.16
2023-02-10T14:13:05.022Z,13.19
2023-02-10T14:15:36.080Z,14.82
2023-02-10T14:18:10.356Z,15.24
2023-02-10T14:20:41.173Z,16.18
2023-02-10T14:23:09.768Z,16.44
2023-02-10T14:25:42.044Z,17.54
2023-02-10T14:28:22.799Z,16.39
2023-02-10T14:30:56.919Z,15.50
2023-02-10T14:33:30.514Z,13.97
2023-02-10T14:36:00.671Z,12.12
2023-02-10T14:38:31.720Z,11.22
2023-02-10T14:41:11.726Z,10.48
2023-02-10T14:43:50.239Z,9.75
2023-02-10T14:46:23.049Z,9.57
2023-02-10T14:48:58.686Z,9.08
2023-02-10T14:51:29.663Z,8.53
2023-02-10T14:53:59.461Z,7.86
2023-02-10T14:56:29.235Z,7.31
2023-02-10T14:58:57.733Z,6.91
2023-02-10T15:01:28.090Z,6.63
2023-02-10T15:03:58.879Z,5.98
2023-02-10T15:06:31.419Z,5.88
2023-02-10T15:09:03.062Z,6.02
2023-02-10T15:11:52.719Z,5.78
2023-02-10T15:14:26.373Z,5.75
2023-02-10T15:16:58.911Z,5.58
2023-02-10T15:19:28.812Z,5.64
2023-02-10T15:21:57.035Z,5.54
2023-02-10T15:24:29.798Z,5.26
2023-02-10T15:26:58.386Z,5.52
2023-02-10T15:29:26.678Z,5.18
2023-02-10T15:31:59.827Z,5.33
2023-02-10T15:34:31.516Z,5.22
2023-02-10T15:37:02.130Z,5.25
2023-02-10T15:39:33.230Z,5.23
2023-02-10T15:42:08.287Z,5.11
2023-02-10T15:44:40.827Z,4.14
2023-02-10T15:47:28.682Z,4.68
2023-02-10T15:50:00.546Z,4.51
2023-02-10T15:52:31.667Z,3.61
2023-02-10T15:55:02.961Z,3.15
2023-02-10T15:57:31.285Z,3.81
2023-02-10T15:59:59.816Z,2.90
2023-02-10T16:02:28.794Z,3.66
2023-02-10T16:04:58.692Z,3.45
2023-02-10T16:07:28.707Z,3.17
2023-02-10T16:09:57.985Z,3.12
2023-02-10T16:12:26.969Z,3.13
2023-02-10T16:14:55.886Z,3.10
2023-02-10T16:17:27.822Z,2.97
2023-02-10T16:19:56.282Z,2.87
2023-02-10T16:22:26.036Z,2.80
2023-02-10T16:24:55.053Z,2.56
2023-02-10T16:27:23.335Z,2.46
2023-02-10T16:29:51.685Z,2.21
2023-02-10T16:32:19.831Z,2.11
2023-02-10T16:34:48.084Z,2.17
2023-02-10T16:37:21.743Z,2.09
2023-02-10T16:39:52.106Z,1.02
2023-02-10T16:42:20.293Z,2.06
2023-02-10T16:44:49.096Z,2.01
2023-02-10T16:47:20.991Z,2.01
2023-02-10T16:49:49.848Z,1.89
2023-02-10T16:52:22.151Z,1.70
2023-02-10T16:54:52.735Z,1.64
2023-02-10T16:57:21.202Z,1.58
2023-02-10T16:59:49.986Z,1.47
2023-02-10T17:02:18.141Z,1.33
2023-02-10T17:04:46.242Z,1.40
2023-02-10T17:07:15.080Z,1.40
2023-02-10T17:09:43.629Z,1.07
2023-02-10T17:12:13.170Z,1.27
2023-02-10T17:14:41.343Z,0.93
2023-02-10T17:17:11.575Z,1.17
2023-02-10T17:19:39.692Z,0.94
2023-02-10T17:22:07.807Z,0.94
2023-02-10T17:24:35.950Z,1.14
2023-02-10T17:27:04.156Z,1.11
2023-02-10T17:29:33.749Z,1.03
2023-02-10T17:32:02.207Z,1.03
2023-02-10T17:34:34.368Z,0.83
2023-02-10T17:37:02.803Z,0.90
2023-02-10T17:39:40.536Z,0.90
2023-02-10T17:42:08.880Z,0.84
2023-02-10T17:44:38.665Z,0.76
2023-02-10T17:47:06.951Z,0.84
2023-02-10T17:49:35.758Z,0.84
2023-02-10T17:52:04.868Z,0.87
2023-02-10T17:54:33.248Z,-0.30
2023-02-10T17:57:01.415Z,0.58
2023-02-10T17:59:29.793Z,0.49
2023-02-10T18:02:00.952Z,0.51
2023-02-10T18:04:29.385Z,0.61
2023-02-10T18:06:57.536Z,0.57
2023-02-10T18:09:28.604Z,-2.21
2023-02-10T18:11:58.565Z,0.36
2023-02-10T18:14:27.606Z,0.19
2023-02-10T18:16:56.033Z,0.43
2023-02-10T18:19:25.621Z,0.36
2023-02-10T18:21:53.824Z,0.31
2023-02-10T18:24:22.864Z,-0.90
2023-02-10T18:26:51.939Z,0.25
2023-02-10T18:29:20.147Z,0.20
2023-02-10T18:31:48.314Z,-0.11
2023-02-10T18:34:16.535Z,0.14
2023-02-10T18:36:46.112Z,-1.30
2023-02-10T18:39:14.550Z,0.06
2023-02-10T18:41:43.068Z,0.03
2023-02-10T18:44:11.263Z,-0.16
2023-02-10T18:46:39.404Z,-0.12
2023-02-10T18:49:07.533Z,-0.13
2023-02-10T18:51:35.664Z,-0.13
2023-02-10T18:54:05.335Z,-0.24
2023-02-10T18:56:33.516Z,-0.12
2023-02-10T18:59:01.687Z,-0.22
2023-02-10T19:01:29.959Z,-0.24
2023-02-10T19:04:03.569Z,-0.28
2023-02-10T19:06:32.023Z,-0.23
2023-02-10T19:09:00.451Z,-0.30
2023-02-10T19:11:30.013Z,-0.37
2023-02-10T19:13:58.403Z,-0.37
2023-02-10T19:16:27.704Z,-0.40
2023-02-10T19:18:55.875Z,-0.40
2023-02-10T19:21:23.978Z,-0.43
2023-02-10T19:23:52.133Z,-0.59
2023-02-10T19:26:20.325Z,-0.67
2023-02-10T19:28:50.128Z,-0.84
2023-02-10T19:31:19.026Z,-0.47
2023-02-10T19:33:48.192Z,-0.48
2023-02-10T19:36:17.569Z,-0.52
2023-02-10T19:38:46.087Z,-0.58
2023-02-10T19:41:16.857Z,-0.63
2023-02-10T19:43:45.751Z,-0.76
2023-02-10T19:46:15.977Z,-1.92
2023-02-10T19:48:45.920Z,-0.70
2023-02-10T19:51:16.068Z,-0.70
2023-02-10T19:53:44.953Z,-0.72
2023-02-10T19:56:14.052Z,-0.71
2023-02-10T19:58:42.576Z,-0.83
2023-02-10T20:01:15.759Z,-0.93
2023-02-10T20:03:46.457Z,-0.94
2023-02-10T20:06:17.048Z,-0.87
2023-02-10T20:08:45.422Z,-0.90
2023-02-10T20:11:14.937Z,-1.94
2023-02-10T20:13:43.570Z,-1.11
2023-02-10T20:16:12.566Z,-0.98
2023-02-10T20:18:41.198Z,-1.14
2023-02-10T20:21:11.166Z,-1.00
2023-02-10T20:23:42.712Z,-1.01
2023-02-10T20:26:13.062Z,-1.45
2023-02-10T20:28:41.674Z,-1.05
2023-02-10T20:31:14.540Z,-1.50
2023-02-10T20:33:43.864Z,-2.68
2023-02-10T20:36:15.378Z,-1.32
2023-02-10T20:38:44.896Z,-1.04
2023-02-10T20:41:17.328Z,-1.14
2023-02-10T20:43:47.903Z,-1.17
2023-02-10T20:46:17.538Z,-1.24
2023-02-10T20:48:46.812Z,-1.26
2023-02-10T20:51:17.815Z,-1.31
2023-02-10T20:53:47.079Z,-1.90
2023-02-10T20:56:17.243Z,-1.26
2023-02-10T20:58:45.563Z,-1.30
2023-02-10T21:01:15.443Z,-1.36
2023-02-10T21:03:43.644Z,-1.37
2023-02-10T21:06:14.145Z,-1.39
2023-02-10T21:08:44.583Z,-1.43
2023-02-10T21:11:14.412Z,-1.46
2023-02-10T21:13:42.947Z,-1.42
2023-02-10T21:16:13.894Z,-1.49
2023-02-10T21:18:42.627Z,-1.37
2023-02-10T21:21:13.060Z,-1.44
2023-02-10T21:23:41.687Z,-1.50
2023-02-10T21:26:11.346Z,-1.57
2023-02-10T21:28:40.264Z,-1.61
2023-02-10T21:31:13.658Z,-1.64
2023-02-10T21:33:42.121Z,-1.64
2023-02-10T21:36:20.496Z,-1.67
2023-02-10T21:38:48.885Z,-2.00
2023-02-10T21:41:36.248Z,-1.65
2023-02-10T21:44:04.714Z,-1.78
2023-02-10T21:46:33.286Z,-1.80
2023-02-10T21:49:01.604Z,-1.82
2023-02-10T21:51:29.791Z,-1.88
2023-02-10T21:53:58.064Z,-2.03
2023-02-10T21:56:30.035Z,-2.29
2023-02-10T21:58:58.348Z,-2.34
2023-02-10T22:01:27.284Z,-2.00
2023-02-10T22:03:55.742Z,-2.06
2023-02-10T22:06:24.383Z,-1.97
2023-02-10T22:08:52.725Z,-2.14
2023-02-10T22:11:20.986Z,-2.01
2023-02-10T22:13:50.748Z,-2.00
2023-02-10T22:16:19.852Z,-1.88
2023-02-10T22:18:49.084Z,-1.92
2023-02-10T22:21:18.683Z,-2.17
2023-02-10T22:23:47.701Z,-1.95
2023-02-10T22:26:18.194Z,-3.44
2023-02-10T22:28:47.334Z,-1.99
2023-02-10T22:31:18.974Z,-2.05
2023-02-10T22:33:48.526Z,-2.05
2023-02-10T22:36:16.807Z,-1.98
2023-02-10T22:38:44.956Z,-2.00
2023-02-10T22:41:15.381Z,-1.97
2023-02-10T22:43:44.056Z,-2.02
2023-02-10T22:46:13.781Z,-2.10
2023-02-10T22:48:44.489Z,-2.61
2023-02-10T22:51:15.265Z,-2.19
2023-02-10T22:53:44.044Z,-2.26
2023-02-10T22:56:15.818Z,-2.11
2023-02-10T22:58:44.719Z,-2.14
2023-02-10T23:01:13.539Z,-2.25
2023-02-10T23:03:43.182Z,-2.30
2023-02-10T23:06:11.490Z,-2.75
2023-02-10T23:08:39.686Z,-2.35
2023-02-10T23:11:07.991Z,-2.51
2023-02-10T23:13:36.876Z,-2.36
2023-02-10T23:16:05.517Z,-2.39
2023-02-10T23:18:33.675Z,-2.51
2023-02-10T23:21:11.049Z,-2.38
2023-02-10T23:23:39.284Z,-2.43
2023-02-10T23:26:08.037Z,-2.45
2023-02-10T23:28:36.639Z,-2.48
2023-02-10T23:31:13.570Z,-2.50
2023-02-10T23:33:42.049Z,-2.50
2023-02-10T23:36:11.879Z,-2.54
2023-02-10T23:38:40.189Z,-2.60
2023-02-10T23:41:08.560Z,-2.61
2023-02-10T23:43:37.009Z,-2.60
2023-02-10T23:46:06.999Z,-2.64
2023-02-10T23:48:36.190Z,-3.95
2023-02-10T23:51:08.430Z,-2.71
2023-02-10T23:53:38.464Z,-2.69
2023-02-10T23:56:08.371Z,-2.93
2023-02-10T23:58:36.382Z,-2.86
